createdAt,value
2022-07-29T00:01:56.454Z,16.12
2022-07-29T00:04:29.382Z,16.10
2022-07-29T00:06:59.969Z,16.02
2022-07-29T00:09:29.946Z,16.05
2022-07-29T00:12:03.222Z,16.00
2022-07-29T00:14:33.672Z,15.98
2022-07-29T00:17:04.000Z,15.97
2022-07-29T00:19:36.884Z,15.95
2022-07-29T00:22:08.422Z,15.97
2022-07-29T00:24:38.644Z,15.97
2022-07-29T00:27:08.414Z,15.90
2022-07-29T00:29:38.618Z,15.89
2022-07-29T00:32:10.756Z,15.86
2022-07-29T00:34:55.663Z,15.82
2022-07-29T00:37:25.956Z,15.79
2022-07-29T00:39:56.220Z,15.77
2022-07-29T00:42:26.484Z,15.77
2022-07-29T00:44:56.705Z,15.75
2022-07-29T00:47:26.682Z,15.77
2022-07-29T00:49:59.527Z,15.73
2022-07-29T00:52:30.415Z,15.66
2022-07-29T00:55:04.957Z,15.61
2022-07-29T00:57:39.133Z,15.62
2022-07-29T01:00:12.634Z,15.62
2022-07-29T01:02:42.596Z,15.55
2022-07-29T01:05:19.140Z,15.54
2022-07-29T01:07:52.021Z,15.54
2022-07-29T01:10:24.754Z,15.53
2022-07-29T01:12:56.848Z,15.50
2022-07-29T01:15:29.708Z,15.46
2022-07-29T01:18:08.063Z,15.47
2022-07-29T01:21:09.461Z,15.47
2022-07-29T01:24:03.618Z,15.46
2022-07-29T01:26:38.857Z,15.49
2022-07-29T01:29:23.941Z,15.41
2022-07-29T01:32:01.581Z,15.38
2022-07-29T01:34:44.351Z,15.35
2022-07-29T01:37:22.496Z,15.35
2022-07-29T01:39:56.757Z,15.34
2022-07-29T01:42:33.649Z,15.33
2022-07-29T01:45:14.418Z,15.33
2022-07-29T01:47:50.989Z,15.25
2022-07-29T01:50:27.710Z,15.23
2022-07-29T01:53:02.580Z,15.26
2022-07-29T01:55:40.508Z,15.25
2022-07-29T01:58:13.424Z,15.22
2022-07-29T02:00:49.741Z,15.18
2022-07-29T02:03:21.842Z,15.13
2022-07-29T02:05:54.631Z,15.13
2022-07-29T02:08:30.007Z,15.10
2022-07-29T02:11:00.979Z,15.10
2022-07-29T02:13:35.658Z,15.10
2022-07-29T02:16:11.018Z,15.08
2022-07-29T02:18:45.031Z,15.08
2022-07-29T02:21:24.039Z,15.07
2022-07-29T02:23:55.376Z,15.06
2022-07-29T02:26:28.252Z,15.03
2022-07-29T02:29:00.556Z,15.03
2022-07-29T02:31:38.779Z,15.01
2022-07-29T02:34:12.620Z,15.02
2022-07-29T02:36:44.484Z,15.00
2022-07-29T02:39:22.521Z,14.93
2022-07-29T02:41:56.915Z,14.90
2022-07-29T02:44:34.425Z,14.86
2022-07-29T02:47:15.174Z,14.85
2022-07-29T02:49:52.554Z,14.82
2022-07-29T02:52:29.882Z,14.79
2022-07-29T02:55:04.196Z,14.79
2022-07-29T02:57:54.311Z,14.81
2022-07-29T03:00:30.718Z,14.77
2022-07-29T03:03:07.698Z,14.76
2022-07-29T03:05:39.015Z,14.75
2022-07-29T03:08:13.160Z,14.67
2022-07-29T03:10:47.832Z,14.62
2022-07-29T03:13:19.995Z,14.64
2022-07-29T03:15:52.211Z,14.60
2022-07-29T03:18:26.109Z,14.61
2022-07-29T03:20:56.382Z,14.59
2022-07-29T03:23:35.173Z,14.59
2022-07-29T03:26:07.055Z,14.54
2022-07-29T03:28:37.117Z,14.54
2022-07-29T03:31:09.724Z,14.49
2022-07-29T03:33:42.229Z,14.50
2022-07-29T03:36:13.744Z,14.48
2022-07-29T03:38:46.604Z,14.49
2022-07-29T03:41:18.578Z,14.50
2022-07-29T03:43:55.924Z,14.47
2022-07-29T03:46:30.539Z,14.46
2022-07-29T03:49:09.474Z,14.46
2022-07-29T03:51:39.866Z,14.44
2022-07-29T03:54:12.570Z,14.42
2022-07-29T03:56:47.887Z,14.42
2022-07-29T03:59:24.329Z,14.43
2022-07-29T04:01:54.835Z,14.39
2022-07-29T04:04:27.634Z,14.44
2022-07-29T04:06:58.923Z,14.40
2022-07-29T04:09:29.282Z,14.41
2022-07-29T04:12:03.386Z,14.38
2022-07-29T04:14:35.924Z,14.37
2022-07-29T04:17:07.519Z,14.41
2022-07-29T04:19:39.952Z,14.38
2022-07-29T04:22:09.869Z,14.40
2022-07-29T04:24:43.986Z,14.42
2022-07-29T04:27:16.234Z,14.39
2022-07-29T04:29:56.916Z,14.38
2022-07-29T04:32:27.699Z,14.36
2022-07-29T04:35:03.567Z,14.34
2022-07-29T04:37:33.933Z,14.36
2022-07-29T04:40:07.187Z,14.37
2022-07-29T04:42:46.211Z,14.31
2022-07-29T04:45:16.894Z,14.32
2022-07-29T04:47:52.935Z,14.30
2022-07-29T04:50:26.300Z,14.32
2022-07-29T04:52:57.537Z,14.34
2022-07-29T04:55:28.024Z,14.36
2022-07-29T04:58:00.590Z,14.39
2022-07-29T05:00:34.792Z,14.38
2022-07-29T05:03:04.572Z,14.39
2022-07-29T05:05:37.327Z,14.43
2022-07-29T05:08:07.955Z,14.46
2022-07-29T05:10:39.208Z,14.47
2022-07-29T05:13:12.892Z,14.45
2022-07-29T05:15:42.517Z,14.54
2022-07-29T05:18:12.618Z,14.59
2022-07-29T05:20:45.232Z,14.72
2022-07-29T05:23:16.989Z,15.02
2022-07-29T05:25:47.538Z,15.29
2022-07-29T05:28:18.212Z,15.55
2022-07-29T05:30:48.600Z,15.81
2022-07-29T05:33:35.124Z,16.01
2022-07-29T05:36:10.005Z,16.32
2022-07-29T05:38:40.471Z,16.61
2022-07-29T05:41:10.685Z,16.90
2022-07-29T05:43:40.546Z,16.91
2022-07-29T05:46:10.667Z,17.08
2022-07-29T05:48:41.082Z,17.16
2022-07-29T05:51:17.609Z,17.05
2022-07-29T05:53:47.567Z,17.50
2022-07-29T05:56:17.499Z,17.25
2022-07-29T05:58:48.013Z,17.54
2022-07-29T06:01:18.808Z,17.80
2022-07-29T06:03:50.615Z,18.06
2022-07-29T06:06:23.662Z,18.31
2022-07-29T06:08:54.153Z,18.01
2022-07-29T06:11:24.635Z,18.00
2022-07-29T06:13:55.276Z,17.98
2022-07-29T06:16:29.788Z,18.21
2022-07-29T06:19:01.687Z,18.41
2022-07-29T06:21:34.784Z,18.28
2022-07-29T06:24:09.896Z,18.29
2022-07-29T06:26:40.099Z,17.96
2022-07-29T06:29:11.816Z,17.95
2022-07-29T06:31:42.376Z,17.73
2022-07-29T06:34:12.450Z,17.73
2022-07-29T06:36:48.520Z,17.50
2022-07-29T06:39:19.565Z,17.45
2022-07-29T06:41:54.265Z,17.51
2022-07-29T06:44:25.140Z,18.10
2022-07-29T06:46:58.349Z,18.78
2022-07-29T06:49:31.888Z,19.24
2022-07-29T06:52:04.987Z,19.71
2022-07-29T06:54:35.248Z,19.87
2022-07-29T06:57:05.522Z,20.16
2022-07-29T06:59:36.169Z,20.39
2022-07-29T07:02:06.471Z,20.05
2022-07-29T07:04:37.020Z,19.98
2022-07-29T07:07:12.001Z,19.90
2022-07-29T07:09:42.392Z,19.70
2022-07-29T07:12:16.336Z,19.59
2022-07-29T07:14:46.629Z,19.63
2022-07-29T07:17:16.784Z,19.37
2022-07-29T07:19:47.946Z,19.47
2022-07-29T07:22:21.301Z,19.53
2022-07-29T07:24:51.759Z,19.36
2022-07-29T07:27:23.906Z,19.09
2022-07-29T07:29:56.993Z,19.22
2022-07-29T07:32:27.071Z,19.07
2022-07-29T07:34:57.433Z,19.32
2022-07-29T07:37:35.826Z,19.61
2022-07-29T07:40:06.910Z,19.33
2022-07-29T07:42:37.129Z,19.34
2022-07-29T07:45:13.815Z,19.59
2022-07-29T07:47:45.737Z,20.22
2022-07-29T07:50:19.280Z,20.45
2022-07-29T07:53:00.136Z,20.83
2022-07-29T07:55:47.472Z,20.95
2022-07-29T07:58:25.122Z,21.21
2022-07-29T08:00:55.314Z,21.02
2022-07-29T08:03:25.689Z,20.61
2022-07-29T08:06:01.013Z,21.01
2022-07-29T08:08:34.834Z,21.81
2022-07-29T08:11:09.395Z,22.58
2022-07-29T08:13:40.937Z,22.85
2022-07-29T08:16:17.986Z,23.29
2022-07-29T08:18:50.324Z,23.58
2022-07-29T08:21:21.824Z,23.40
2022-07-29T08:24:16.577Z,23.13
2022-07-29T08:26:48.919Z,23.44
2022-07-29T08:29:20.181Z,23.39
2022-07-29T08:31:50.984Z,23.36
2022-07-29T08:34:27.748Z,23.64
2022-07-29T08:37:01.050Z,24.29
2022-07-29T08:39:34.914Z,24.27
2022-07-29T08:42:05.382Z,24.31
2022-07-29T08:44:36.875Z,24.29
2022-07-29T08:47:07.360Z,24.18
2022-07-29T08:49:39.661Z,24.52
2022-07-29T08:52:12.766Z,25.01
2022-07-29T08:54:47.872Z,24.66
2022-07-29T08:57:18.454Z,24.29
2022-07-29T08:59:54.855Z,23.95
2022-07-29T09:02:26.504Z,23.98
2022-07-29T09:04:56.699Z,23.47
2022-07-29T09:07:26.879Z,23.85
2022-07-29T09:10:08.956Z,24.67
2022-07-29T09:12:39.105Z,24.79
2022-07-29T09:15:12.934Z,24.56
2022-07-29T09:17:48.167Z,24.04
2022-07-29T09:20:22.196Z,25.20
2022-07-29T09:22:54.447Z,25.24
2022-07-29T09:25:41.243Z,25.35
2022-07-29T09:28:11.987Z,25.47
2022-07-29T09:30:54.677Z,25.17
2022-07-29T09:33:26.640Z,25.78
2022-07-29T09:36:06.711Z,25.17
2022-07-29T09:38:37.761Z,25.52
2022-07-29T09:41:11.775Z,25.87
2022-07-29T09:43:43.524Z,25.56
2022-07-29T09:46:17.965Z,26.15
2022-07-29T09:48:48.216Z,26.29
2022-07-29T09:51:28.316Z,25.56
2022-07-29T09:54:26.996Z,26.26
2022-07-29T09:57:00.207Z,26.30
2022-07-29T09:59:31.105Z,26.27
2022-07-29T10:02:01.540Z,25.15
2022-07-29T10:04:46.623Z,25.32
2022-07-29T10:07:16.707Z,25.49
2022-07-29T10:09:56.396Z,25.52
2022-07-29T10:12:29.741Z,25.85
2022-07-29T10:15:01.065Z,26.08
2022-07-29T10:17:31.186Z,26.11
2022-07-29T10:20:01.657Z,25.43
2022-07-29T10:22:52.336Z,24.94
2022-07-29T10:25:24.263Z,25.85
2022-07-29T10:27:58.769Z,25.14
2022-07-29T10:30:30.360Z,25.34
2022-07-29T10:33:26.503Z,25.23
2022-07-29T10:36:06.614Z,25.26
2022-07-29T10:38:56.517Z,26.47
2022-07-29T10:41:51.418Z,26.04
2022-07-29T10:44:26.776Z,25.89
2022-07-29T10:46:57.450Z,26.31
2022-07-29T10:49:31.439Z,26.74
2022-07-29T10:52:06.019Z,26.89
2022-07-29T10:54:48.733Z,27.30
2022-07-29T10:57:57.728Z,27.66
2022-07-29T11:00:36.424Z,27.54
2022-07-29T11:03:10.618Z,27.16
2022-07-29T11:05:59.901Z,27.39
2022-07-29T11:08:32.826Z,27.34
2022-07-29T11:11:38.267Z,27.77
2022-07-29T11:14:10.399Z,27.50
2022-07-29T11:17:09.089Z,28.35
2022-07-29T11:19:45.720Z,28.33
2022-07-29T11:22:45.822Z,28.11
2022-07-29T11:25:18.343Z,28.00
2022-07-29T11:27:49.014Z,27.78
2022-07-29T11:30:21.835Z,28.15
2022-07-29T11:32:58.126Z,27.96
2022-07-29T11:35:38.336Z,27.70
2022-07-29T11:38:33.106Z,27.70
2022-07-29T11:41:28.265Z,27.79
2022-07-29T11:44:01.563Z,28.00
2022-07-29T11:46:54.546Z,27.71
2022-07-29T11:49:31.933Z,27.68
2022-07-29T11:52:11.002Z,27.22
2022-07-29T11:54:58.012Z,26.71
2022-07-29T11:57:37.149Z,26.93
2022-07-29T12:00:12.437Z,27.51
2022-07-29T12:02:48.046Z,28.59
2022-07-29T12:05:36.559Z,27.68
2022-07-29T12:08:15.997Z,27.48
2022-07-29T12:10:47.472Z,27.40
2022-07-29T12:13:19.465Z,26.90
2022-07-29T12:16:00.152Z,27.86
2022-07-29T12:18:31.233Z,27.99
2022-07-29T12:21:06.475Z,27.53
2022-07-29T12:23:37.141Z,27.99
2022-07-29T12:26:10.616Z,28.43
2022-07-29T12:28:41.984Z,28.80
2022-07-29T12:31:42.817Z,29.06
2022-07-29T12:34:08.391Z,28.72
2022-07-29T12:36:42.548Z,28.45
2022-07-29T12:39:13.527Z,28.32
2022-07-29T12:41:43.676Z,29.00
2022-07-29T12:44:13.916Z,29.33
2022-07-29T12:46:43.982Z,28.40
2022-07-29T12:49:14.279Z,28.43
2022-07-29T12:51:46.652Z,28.94
2022-07-29T12:54:18.259Z,29.36
2022-07-29T12:56:49.199Z,29.13
2022-07-29T12:59:22.945Z,29.05
2022-07-29T13:01:55.121Z,27.50
2022-07-29T13:04:31.592Z,27.97
2022-07-29T13:07:10.601Z,28.17
2022-07-29T13:09:42.930Z,27.76
2022-07-29T13:12:14.683Z,28.14
2022-07-29T13:14:46.564Z,28.41
2022-07-29T13:17:18.380Z,29.19
2022-07-29T13:19:50.841Z,28.89
2022-07-29T13:22:25.191Z,29.42
2022-07-29T13:24:57.900Z,28.07
2022-07-29T13:27:33.371Z,27.93
2022-07-29T13:30:05.701Z,28.45
2022-07-29T13:32:37.443Z,28.71
2022-07-29T13:35:10.712Z,27.92
2022-07-29T13:37:43.779Z,28.00
2022-07-29T13:40:15.085Z,27.77
2022-07-29T13:42:45.483Z,27.51
2022-07-29T13:45:17.333Z,28.26
2022-07-29T13:47:47.927Z,27.65
2022-07-29T13:50:19.933Z,27.99
2022-07-29T13:52:52.656Z,27.49
2022-07-29T13:55:23.184Z,28.47
2022-07-29T13:57:53.512Z,28.23
2022-07-29T14:00:24.808Z,28.55
2022-07-29T14:02:54.942Z,28.45
2022-07-29T14:05:25.664Z,27.40
2022-07-29T14:08:01.391Z,27.28
2022-07-29T14:10:31.753Z,27.93
2022-07-29T14:13:01.679Z,27.57
2022-07-29T14:15:32.168Z,26.93
2022-07-29T14:18:02.842Z,26.82
2022-07-29T14:20:34.950Z,26.45
2022-07-29T14:23:07.373Z,26.83
2022-07-29T14:25:37.506Z,27.03
2022-07-29T14:28:11.986Z,26.66
2022-07-29T14:30:44.857Z,26.67
2022-07-29T14:33:17.882Z,26.32
2022-07-29T14:35:49.613Z,26.28
2022-07-29T14:38:22.234Z,26.34
2022-07-29T14:40:57.018Z,26.87
2022-07-29T14:43:27.463Z,27.09
2022-07-29T14:46:02.918Z,27.31
2022-07-29T14:48:35.406Z,26.66
2022-07-29T14:51:05.544Z,26.68
2022-07-29T14:53:39.048Z,26.49
2022-07-29T14:56:34.314Z,26.08
2022-07-29T14:58:59.092Z,26.86
2022-07-29T15:01:33.159Z,26.56
2022-07-29T15:04:04.293Z,26.49
2022-07-29T15:06:35.129Z,26.38
2022-07-29T15:09:07.870Z,25.79
2022-07-29T15:11:38.587Z,25.44
2022-07-29T15:14:08.897Z,25.52
2022-07-29T15:16:41.902Z,25.97
2022-07-29T15:19:17.090Z,25.87
2022-07-29T15:21:59.538Z,25.84
2022-07-29T15:24:34.390Z,26.22
2022-07-29T15:27:04.566Z,25.40
2022-07-29T15:29:35.861Z,25.36
2022-07-29T15:32:06.197Z,25.37
2022-07-29T15:34:36.487Z,25.87
2022-07-29T15:37:07.134Z,25.47
2022-07-29T15:39:39.518Z,25.48
2022-07-29T15:42:09.960Z,25.65
2022-07-29T15:44:39.953Z,25.86
2022-07-29T15:47:10.605Z,25.79
2022-07-29T15:49:47.214Z,26.01
2022-07-29T15:52:25.959Z,25.77
2022-07-29T15:55:00.985Z,25.86
2022-07-29T15:57:31.059Z,25.31
2022-07-29T16:00:04.360Z,24.96
2022-07-29T16:02:34.656Z,25.38
2022-07-29T16:05:04.599Z,25.82
2022-07-29T16:07:39.713Z,25.86
2022-07-29T16:10:12.362Z,25.42
2022-07-29T16:12:42.210Z,25.50
2022-07-29T16:15:13.043Z,25.20
2022-07-29T16:17:42.967Z,24.30
2022-07-29T16:20:14.084Z,24.57
2022-07-29T16:22:43.990Z,24.67
2022-07-29T16:25:19.813Z,24.83
2022-07-29T16:27:49.933Z,24.86
2022-07-29T16:30:20.856Z,24.67
2022-07-29T16:32:50.947Z,25.14
2022-07-29T16:35:20.853Z,25.24
2022-07-29T16:37:50.821Z,24.57
2022-07-29T16:40:23.978Z,24.51
2022-07-29T16:42:53.814Z,24.25
2022-07-29T16:45:24.142Z,24.42
2022-07-29T16:48:01.334Z,23.93
2022-07-29T16:50:34.002Z,23.49
2022-07-29T16:53:12.182Z,23.80
2022-07-29T16:55:49.141Z,23.66
2022-07-29T16:58:19.383Z,23.32
2022-07-29T17:00:52.608Z,23.58
2022-07-29T17:03:22.789Z,23.33
2022-07-29T17:05:56.345Z,23.23
2022-07-29T17:08:26.625Z,22.79
2022-07-29T17:10:59.798Z,22.65
2022-07-29T17:13:29.821Z,22.86
2022-07-29T17:16:00.761Z,22.67
2022-07-29T17:18:31.181Z,22.17
2022-07-29T17:21:01.120Z,22.07
2022-07-29T17:23:31.567Z,22.15
2022-07-29T17:26:04.914Z,22.18
2022-07-29T17:28:34.649Z,22.03
2022-07-29T17:31:07.640Z,21.97
2022-07-29T17:33:37.998Z,21.80
2022-07-29T17:36:21.084Z,21.72
2022-07-29T17:38:51.424Z,21.70
2022-07-29T17:41:26.791Z,21.61
2022-07-29T17:43:57.938Z,21.43
2022-07-29T17:46:30.121Z,21.56
2022-07-29T17:49:01.831Z,21.45
2022-07-29T17:51:32.478Z,21.22
2022-07-29T17:54:02.681Z,21.18
2022-07-29T17:56:35.391Z,21.04
2022-07-29T17:59:17.985Z,20.97
2022-07-29T18:01:48.314Z,20.75
2022-07-29T18:04:23.656Z,20.71
2022-07-29T18:06:54.555Z,20.78
2022-07-29T18:09:25.291Z,20.66
2022-07-29T18:11:58.535Z,20.51
2022-07-29T18:14:29.416Z,20.44
2022-07-29T18:17:00.367Z,20.44
2022-07-29T18:19:31.582Z,20.44
2022-07-29T18:22:05.298Z,20.32
2022-07-29T18:24:36.237Z,20.23
2022-07-29T18:27:09.059Z,20.33
2022-07-29T18:29:39.709Z,20.20
2022-07-29T18:32:10.783Z,20.13
2022-07-29T18:34:41.192Z,20.05
2022-07-29T18:37:13.577Z,19.90
2022-07-29T18:39:44.066Z,19.93
2022-07-29T18:42:18.232Z,19.89
2022-07-29T18:44:49.112Z,19.75
2022-07-29T18:47:22.533Z,19.69
2022-07-29T18:50:03.364Z,19.74
2022-07-29T18:52:34.359Z,19.56
2022-07-29T18:55:05.712Z,19.63
2022-07-29T18:57:53.746Z,19.58
2022-07-29T19:00:25.742Z,19.37
2022-07-29T19:02:57.269Z,19.30
2022-07-29T19:05:27.544Z,19.23
2022-07-29T19:07:58.220Z,19.13
2022-07-29T19:10:28.332Z,19.05
2022-07-29T19:13:06.362Z,19.12
2022-07-29T19:15:38.321Z,18.93
2022-07-29T19:18:13.639Z,18.91
2022-07-29T19:20:44.091Z,18.82
2022-07-29T19:23:15.020Z,18.81
2022-07-29T19:25:53.737Z,18.70
2022-07-29T19:28:27.383Z,18.57
2022-07-29T19:30:58.664Z,18.62
2022-07-29T19:33:29.330Z,18.45
2022-07-29T19:35:59.462Z,18.42
2022-07-29T19:38:32.374Z,18.36
2022-07-29T19:41:02.900Z,18.25
2022-07-29T19:43:50.721Z,18.23
2022-07-29T19:46:23.068Z,18.13
2022-07-29T19:48:54.042Z,18.09
2022-07-29T19:51:24.122Z,18.08
2022-07-29T19:53:55.197Z,18.04
2022-07-29T19:56:30.228Z,18.08
2022-07-29T19:59:03.801Z,17.96
2022-07-29T20:01:38.213Z,18.01
2022-07-29T20:04:08.448Z,17.88
2022-07-29T20:06:38.530Z,17.90
2022-07-29T20:09:08.602Z,17.85
2022-07-29T20:11:47.106Z,17.80
2022-07-29T20:14:20.606Z,17.79
2022-07-29T20:16:50.842Z,17.75
2022-07-29T20:19:21.257Z,17.72
2022-07-29T20:21:51.756Z,17.70
2022-07-29T20:24:22.721Z,17.64
2022-07-29T20:26:52.539Z,17.61
2022-07-29T20:29:26.720Z,17.50
2022-07-29T20:31:56.979Z,17.53
2022-07-29T20:34:28.734Z,17.57
2022-07-29T20:37:00.421Z,17.56
2022-07-29T20:39:33.523Z,17.50
2022-07-29T20:42:04.029Z,17.46
2022-07-29T20:44:38.567Z,17.43
2022-07-29T20:47:08.969Z,17.38
2022-07-29T20:49:39.125Z,17.40
2022-07-29T20:52:11.107Z,17.36
2022-07-29T20:54:41.171Z,17.30
2022-07-29T20:57:11.639Z,17.28
2022-07-29T20:59:45.909Z,17.26
2022-07-29T21:02:16.209Z,17.26
2022-07-29T21:04:46.964Z,17.20
2022-07-29T21:07:17.508Z,17.11
2022-07-29T21:09:47.995Z,17.14
2022-07-29T21:12:17.782Z,17.14
2022-07-29T21:14:52.073Z,17.11
2022-07-29T21:17:25.090Z,17.11
2022-07-29T21:19:58.279Z,17.05
2022-07-29T21:22:31.268Z,17.02
2022-07-29T21:25:02.080Z,17.04
2022-07-29T21:27:46.726Z,16.98
2022-07-29T21:30:21.793Z,17.00
2022-07-29T21:32:52.137Z,17.00
2022-07-29T21:35:35.783Z,16.96
2022-07-29T21:38:12.214Z,16.92
2022-07-29T21:40:42.370Z,16.88
2022-07-29T21:43:12.474Z,16.87
2022-07-29T21:45:47.815Z,16.91
2022-07-29T21:48:18.598Z,16.88
2022-07-29T21:50:49.928Z,16.81
2022-07-29T21:53:22.138Z,16.79
2022-07-29T21:55:55.320Z,16.78
2022-07-29T21:58:25.790Z,16.76
2022-07-29T22:00:58.823Z,16.70
2022-07-29T22:03:31.301Z,16.68
2022-07-29T22:06:01.179Z,16.65
2022-07-29T22:08:31.016Z,16.63
2022-07-29T22:11:01.120Z,16.59
2022-07-29T22:13:31.609Z,16.54
2022-07-29T22:16:04.208Z,16.46
2022-07-29T22:18:34.117Z,16.41
2022-07-29T22:21:03.977Z,16.41
2022-07-29T22:23:34.587Z,16.42
2022-07-29T22:26:05.024Z,16.37
2022-07-29T22:28:35.113Z,16.34
2022-07-29T22:31:07.768Z,16.36
2022-07-29T22:33:38.024Z,16.31
2022-07-29T22:36:08.937Z,16.30
2022-07-29T22:38:38.897Z,16.29
2022-07-29T22:41:08.871Z,16.26
2022-07-29T22:43:41.379Z,16.26
2022-07-29T22:46:17.715Z,16.23
2022-07-29T22:48:48.110Z,16.25
2022-07-29T22:51:18.364Z,16.19
2022-07-29T22:53:48.025Z,16.17
2022-07-29T22:56:18.594Z,16.17
2022-07-29T22:58:49.503Z,16.15
2022-07-29T23:01:37.778Z,16.13
2022-07-29T23:04:08.567Z,16.10
2022-07-29T23:06:39.068Z,16.08
2022-07-29T23:09:09.207Z,16.07
2022-07-29T23:11:39.313Z,16.06
2022-07-29T23:14:09.540Z,16.02
2022-07-29T23:16:42.446Z,15.96
2022-07-29T23:19:12.394Z,15.95
2022-07-29T23:21:42.156Z,15.90
2022-07-29T23:24:12.316Z,15.90
2022-07-29T23:26:42.390Z,15.89
2022-07-29T23:29:12.783Z,15.87
2022-07-29T23:31:48.240Z,15.83
2022-07-29T23:34:19.475Z,15.82
2022-07-29T23:36:52.080Z,15.80
2022-07-29T23:39:22.551Z,15.77
2022-07-29T23:41:52.437Z,15.74
2022-07-29T23:44:22.906Z,15.73
2022-07-29T23:46:55.961Z,15.68
2022-07-29T23:49:26.207Z,15.68
2022-07-29T23:51:56.403Z,15.61
2022-07-29T23:54:26.326Z,15.61
2022-07-29T23:56:58.338Z,15.58
2022-07-29T23:59:28.777Z,15.55
